sensor_id;sensor_type;location;lat;lon;timestamp;pressure;altitude;pressure_sealevel;temperature;humidity
30383;BME280;17179;48.022;7.858;2022-07-23T00:00:43;98766.88;;;25.67;39.19
30383;BME280;17179;48.022;7.858;2022-07-23T00:03:09;98769.47;;;25.60;38.10
30383;BME280;17179;48.022;7.858;2022-07-23T00:05:35;98770.31;;;25.48;39.06
30383;BME280;17179;48.022;7.858;2022-07-23T00:08:00;98783.34;;;25.31;39.31
30383;BME280;17179;48.022;7.858;2022-07-23T00:10:26;98766.19;;;25.13;39.31
30383;BME280;17179;48.022;7.858;2022-07-23T00:12:51;98749.88;;;24.95;38.87
30383;BME280;17179;48.022;7.858;2022-07-23T00:15:16;98765.97;;;24.77;39.21
30383;BME280;17179;48.022;7.858;2022-07-23T00:17:42;98787.13;;;24.60;39.76
30383;BME280;17179;48.022;7.858;2022-07-23T00:20:07;98812.28;;;24.42;39.78
30383;BME280;17179;48.022;7.858;2022-07-23T00:22:33;98813.41;;;24.29;39.66
30383;BME280;17179;48.022;7.858;2022-07-23T00:24:59;98814.56;;;24.15;41.30
30383;BME280;17179;48.022;7.858;2022-07-23T00:27:25;98792.91;;;24.05;40.21
30383;BME280;17179;48.022;7.858;2022-07-23T00:29:50;98779.53;;;23.94;41.21
30383;BME280;17179;48.022;7.858;2022-07-23T00:32:16;98777.31;;;23.87;40.02
30383;BME280;17179;48.022;7.858;2022-07-23T00:34:41;98761.31;;;23.81;40.41
30383;BME280;17179;48.022;7.858;2022-07-23T00:37:06;98755.22;;;23.75;39.37
30383;BME280;17179;48.022;7.858;2022-07-23T00:39:32;98732.56;;;23.69;39.17
30383;BME280;17179;48.022;7.858;2022-07-23T00:41:57;98732.09;;;23.67;38.70
30383;BME280;17179;48.022;7.858;2022-07-23T00:44:25;98743.47;;;23.65;40.54
30383;BME280;17179;48.022;7.858;2022-07-23T00:46:56;98725.41;;;23.68;40.88
30383;BME280;17179;48.022;7.858;2022-07-23T00:49:28;98705.28;;;23.67;41.59
30383;BME280;17179;48.022;7.858;2022-07-23T00:51:54;98704.00;;;23.65;44.25
30383;BME280;17179;48.022;7.858;2022-07-23T00:54:22;98694.09;;;23.64;44.45
30383;BME280;17179;48.022;7.858;2022-07-23T00:56:48;98697.56;;;23.61;44.65
30383;BME280;17179;48.022;7.858;2022-07-23T00:59:14;98699.38;;;23.57;45.02
30383;BME280;17179;48.022;7.858;2022-07-23T01:01:40;98695.38;;;23.54;44.01
30383;BME280;17179;48.022;7.858;2022-07-23T01:04:05;98703.50;;;23.50;44.29
30383;BME280;17179;48.022;7.858;2022-07-23T01:06:36;98728.69;;;23.49;44.08
30383;BME280;17179;48.022;7.858;2022-07-23T01:09:04;98720.53;;;23.40;45.24
30383;BME280;17179;48.022;7.858;2022-07-23T01:11:33;98693.13;;;23.35;45.55
30383;BME280;17179;48.022;7.858;2022-07-23T01:13:58;98685.72;;;23.26;46.09
30383;BME280;17179;48.022;7.858;2022-07-23T01:16:24;98675.72;;;23.22;44.12
30383;BME280;17179;48.022;7.858;2022-07-23T01:18:49;98677.88;;;23.16;45.82
30383;BME280;17179;48.022;7.858;2022-07-23T01:21:17;98668.34;;;23.13;47.16
30383;BME280;17179;48.022;7.858;2022-07-23T01:23:43;98656.13;;;23.02;49.31
30383;BME280;17179;48.022;7.858;2022-07-23T01:26:08;98653.44;;;22.93;48.65
30383;BME280;17179;48.022;7.858;2022-07-23T01:28:34;98661.47;;;22.85;50.02
30383;BME280;17179;48.022;7.858;2022-07-23T01:30:59;98664.31;;;22.77;50.59
30383;BME280;17179;48.022;7.858;2022-07-23T01:33:24;98672.59;;;22.68;50.56
30383;BME280;17179;48.022;7.858;2022-07-23T01:35:50;98693.91;;;22.58;51.71
30383;BME280;17179;48.022;7.858;2022-07-23T01:38:15;98696.88;;;22.53;50.50
30383;BME280;17179;48.022;7.858;2022-07-23T01:40:40;98711.19;;;22.46;51.58
30383;BME280;17179;48.022;7.858;2022-07-23T01:43:06;98688.88;;;22.39;53.76
30383;BME280;17179;48.022;7.858;2022-07-23T01:45:31;98685.84;;;22.32;53.45
30383;BME280;17179;48.022;7.858;2022-07-23T01:47:56;98684.63;;;22.20;53.46
30383;BME280;17179;48.022;7.858;2022-07-23T01:50:22;98679.47;;;22.10;53.92
30383;BME280;17179;48.022;7.858;2022-07-23T01:52:47;98690.53;;;22.01;54.89
30383;BME280;17179;48.022;7.858;2022-07-23T01:55:13;98727.50;;;21.91;54.15
30383;BME280;17179;48.022;7.858;2022-07-23T01:57:38;98727.06;;;21.80;53.13
30383;BME280;17179;48.022;7.858;2022-07-23T02:00:04;98725.81;;;21.69;53.77
30383;BME280;17179;48.022;7.858;2022-07-23T02:02:29;98735.56;;;21.57;53.71
30383;BME280;17179;48.022;7.858;2022-07-23T02:04:55;98748.19;;;21.49;54.19
30383;BME280;17179;48.022;7.858;2022-07-23T02:07:20;98767.00;;;21.38;54.14
30383;BME280;17179;48.022;7.858;2022-07-23T02:09:45;98770.19;;;21.31;54.66
30383;BME280;17179;48.022;7.858;2022-07-23T02:12:11;98763.06;;;21.22;54.57
30383;BME280;17179;48.022;7.858;2022-07-23T02:14:36;98766.66;;;21.13;55.20
30383;BME280;17179;48.022;7.858;2022-07-23T02:17:01;98772.94;;;21.05;55.52
30383;BME280;17179;48.022;7.858;2022-07-23T02:19:27;98770.38;;;21.00;55.95
30383;BME280;17179;48.022;7.858;2022-07-23T02:21:52;98764.56;;;20.92;56.63
30383;BME280;17179;48.022;7.858;2022-07-23T02:24:19;98770.19;;;20.87;56.45
30383;BME280;17179;48.022;7.858;2022-07-23T02:26:45;98770.34;;;20.82;56.35
30383;BME280;17179;48.022;7.858;2022-07-23T02:29:10;98766.28;;;20.79;56.08
30383;BME280;17179;48.022;7.858;2022-07-23T02:31:35;98770.84;;;20.75;56.48
30383;BME280;17179;48.022;7.858;2022-07-23T02:34:01;98768.72;;;20.72;56.38
30383;BME280;17179;48.022;7.858;2022-07-23T02:36:27;98774.88;;;20.69;56.81
30383;BME280;17179;48.022;7.858;2022-07-23T02:38:52;98782.91;;;20.65;56.37
30383;BME280;17179;48.022;7.858;2022-07-23T02:41:18;98763.19;;;20.63;56.66
30383;BME280;17179;48.022;7.858;2022-07-23T02:43:43;98756.72;;;20.59;56.51
30383;BME280;17179;48.022;7.858;2022-07-23T02:46:08;98756.22;;;20.57;56.46
30383;BME280;17179;48.022;7.858;2022-07-23T02:48:34;98756.88;;;20.54;56.33
30383;BME280;17179;48.022;7.858;2022-07-23T02:50:59;98766.22;;;20.53;56.79
30383;BME280;17179;48.022;7.858;2022-07-23T02:53:25;98774.78;;;20.51;57.04
30383;BME280;17179;48.022;7.858;2022-07-23T02:55:51;98776.22;;;20.48;57.32
30383;BME280;17179;48.022;7.858;2022-07-23T02:58:16;98781.72;;;20.48;56.34
30383;BME280;17179;48.022;7.858;2022-07-23T03:00:42;98773.00;;;20.46;57.03
30383;BME280;17179;48.022;7.858;2022-07-23T03:03:07;98771.38;;;20.45;57.48
30383;BME280;17179;48.022;7.858;2022-07-23T03:05:34;98773.66;;;20.43;57.39
30383;BME280;17179;48.022;7.858;2022-07-23T03:07:59;98774.78;;;20.42;57.52
30383;BME280;17179;48.022;7.858;2022-07-23T03:10:24;98774.78;;;20.42;58.08
30383;BME280;17179;48.022;7.858;2022-07-23T03:12:50;98774.28;;;20.40;58.93
30383;BME280;17179;48.022;7.858;2022-07-23T03:15:15;98794.63;;;20.39;58.27
30383;BME280;17179;48.022;7.858;2022-07-23T03:17:41;98805.63;;;20.39;58.95
30383;BME280;17179;48.022;7.858;2022-07-23T03:20:07;98791.38;;;20.37;59.07
30383;BME280;17179;48.022;7.858;2022-07-23T03:22:32;98809.81;;;20.36;58.51
30383;BME280;17179;48.022;7.858;2022-07-23T03:24:58;98810.63;;;20.37;58.58
30383;BME280;17179;48.022;7.858;2022-07-23T03:27:25;98814.50;;;20.36;59.02
30383;BME280;17179;48.022;7.858;2022-07-23T03:29:52;98804.34;;;20.36;58.43
30383;BME280;17179;48.022;7.858;2022-07-23T03:32:17;98817.25;;;20.36;59.10
30383;BME280;17179;48.022;7.858;2022-07-23T03:34:43;98821.09;;;20.35;59.13
30383;BME280;17179;48.022;7.858;2022-07-23T03:37:08;98840.31;;;20.35;59.77
30383;BME280;17179;48.022;7.858;2022-07-23T03:39:33;98842.78;;;20.36;59.22
30383;BME280;17179;48.022;7.858;2022-07-23T03:41:59;98855.06;;;20.39;58.98
30383;BME280;17179;48.022;7.858;2022-07-23T03:44:24;98855.88;;;20.40;59.15
30383;BME280;17179;48.022;7.858;2022-07-23T03:46:50;98867.69;;;20.40;59.40
30383;BME280;17179;48.022;7.858;2022-07-23T03:49:15;98867.69;;;20.40;59.73
30383;BME280;17179;48.022;7.858;2022-07-23T03:51:40;98873.97;;;20.41;59.60
30383;BME280;17179;48.022;7.858;2022-07-23T03:54:06;98870.91;;;20.42;59.22
30383;BME280;17179;48.022;7.858;2022-07-23T03:56:32;98857.19;;;20.42;58.82
30383;BME280;17179;48.022;7.858;2022-07-23T03:58:57;98850.06;;;20.41;59.59
30383;BME280;17179;48.022;7.858;2022-07-23T04:01:22;98822.59;;;20.41;59.16
30383;BME280;17179;48.022;7.858;2022-07-23T04:03:48;98818.72;;;20.42;59.23
30383;BME280;17179;48.022;7.858;2022-07-23T04:06:13;98828.56;;;20.43;58.93
30383;BME280;17179;48.022;7.858;2022-07-23T04:08:38;98831.66;;;20.42;59.19
30383;BME280;17179;48.022;7.858;2022-07-23T04:11:04;98830.84;;;20.41;58.67
30383;BME280;17179;48.022;7.858;2022-07-23T04:13:29;98837.47;;;20.40;58.72
30383;BME280;17179;48.022;7.858;2022-07-23T04:15:55;98824.84;;;20.39;58.89
30383;BME280;17179;48.022;7.858;2022-07-23T04:18:20;98816.59;;;20.39;58.77
30383;BME280;17179;48.022;7.858;2022-07-23T04:20:48;98840.53;;;20.38;58.72
30383;BME280;17179;48.022;7.858;2022-07-23T04:23:14;98832.59;;;20.37;58.42
30383;BME280;17179;48.022;7.858;2022-07-23T04:25:39;98832.09;;;20.35;58.89
30383;BME280;17179;48.022;7.858;2022-07-23T04:28:05;98839.53;;;20.34;59.05
30383;BME280;17179;48.022;7.858;2022-07-23T04:30:30;98849.72;;;20.34;59.13
30383;BME280;17179;48.022;7.858;2022-07-23T04:32:55;98849.72;;;20.34;59.01
30383;BME280;17179;48.022;7.858;2022-07-23T04:35:21;98839.88;;;20.33;59.97
30383;BME280;17179;48.022;7.858;2022-07-23T04:37:46;98847.78;;;20.34;59.67
30383;BME280;17179;48.022;7.858;2022-07-23T04:40:12;98852.47;;;20.34;59.19
30383;BME280;17179;48.022;7.858;2022-07-23T04:42:38;98858.75;;;20.34;59.68
30383;BME280;17179;48.022;7.858;2022-07-23T04:45:04;98863.13;;;20.35;59.07
30383;BME280;17179;48.022;7.858;2022-07-23T04:47:30;98865.53;;;20.37;59.13
30383;BME280;17179;48.022;7.858;2022-07-23T04:49:56;98858.44;;;20.36;59.46
30383;BME280;17179;48.022;7.858;2022-07-23T04:52:21;98850.22;;;20.36;59.18
30383;BME280;17179;48.022;7.858;2022-07-23T04:54:47;98850.69;;;20.38;58.85
30383;BME280;17179;48.022;7.858;2022-07-23T04:57:12;98854.25;;;20.38;59.00
30383;BME280;17179;48.022;7.858;2022-07-23T04:59:37;98853.44;;;20.38;59.36
30383;BME280;17179;48.022;7.858;2022-07-23T05:02:03;98856.69;;;20.40;59.22
30383;BME280;17179;48.022;7.858;2022-07-23T05:04:28;98862.19;;;20.40;59.34
30383;BME280;17179;48.022;7.858;2022-07-23T05:06:53;98859.13;;;20.42;59.27
30383;BME280;17179;48.022;7.858;2022-07-23T05:09:19;98857.97;;;20.43;59.17
30383;BME280;17179;48.022;7.858;2022-07-23T05:11:44;98858.78;;;20.43;59.05
30383;BME280;17179;48.022;7.858;2022-07-23T05:14:09;98864.78;;;20.45;59.19
30383;BME280;17179;48.022;7.858;2022-07-23T05:16:37;98862.22;;;20.49;59.67
30383;BME280;17179;48.022;7.858;2022-07-23T05:19:03;98862.38;;;20.53;59.63
30383;BME280;17179;48.022;7.858;2022-07-23T05:21:28;98849.63;;;20.57;58.78
30383;BME280;17179;48.022;7.858;2022-07-23T05:23:53;98841.25;;;20.62;58.98
30383;BME280;17179;48.022;7.858;2022-07-23T05:26:19;98840.00;;;20.68;59.46
30383;BME280;17179;48.022;7.858;2022-07-23T05:28:44;98839.84;;;20.73;59.72
30383;BME280;17179;48.022;7.858;2022-07-23T05:31:10;98845.38;;;20.82;59.16
30383;BME280;17179;48.022;7.858;2022-07-23T05:33:35;98849.91;;;20.87;59.70
30383;BME280;17179;48.022;7.858;2022-07-23T05:36:04;98846.84;;;20.98;59.15
30383;BME280;17179;48.022;7.858;2022-07-23T05:38:30;98851.69;;;21.01;60.22
30383;BME280;17179;48.022;7.858;2022-07-23T05:40:56;98855.94;;;21.07;59.75
30383;BME280;17179;48.022;7.858;2022-07-23T05:43:21;98859.81;;;21.15;59.48
30383;BME280;17179;48.022;7.858;2022-07-23T05:45:47;98860.47;;;21.20;59.31
30383;BME280;17179;48.022;7.858;2022-07-23T05:48:12;98852.53;;;21.28;59.78
30383;BME280;17179;48.022;7.858;2022-07-23T05:50:38;98863.88;;;21.35;59.17
30383;BME280;17179;48.022;7.858;2022-07-23T05:53:03;98863.75;;;21.40;59.13
30383;BME280;17179;48.022;7.858;2022-07-23T05:55:29;98873.44;;;21.47;58.60
30383;BME280;17179;48.022;7.858;2022-07-23T05:57:56;98865.53;;;21.54;59.22
30383;BME280;17179;48.022;7.858;2022-07-23T06:00:22;98865.34;;;21.59;58.50
30383;BME280;17179;48.022;7.858;2022-07-23T06:02:47;98872.31;;;21.65;57.79
30383;BME280;17179;48.022;7.858;2022-07-23T06:05:13;98884.75;;;21.72;58.62
30383;BME280;17179;48.022;7.858;2022-07-23T06:07:38;98885.72;;;21.76;57.74
30383;BME280;17179;48.022;7.858;2022-07-23T06:10:04;98893.03;;;21.81;54.37
30383;BME280;17179;48.022;7.858;2022-07-23T06:12:29;98894.00;;;21.85;57.83
30383;BME280;17179;48.022;7.858;2022-07-23T06:14:55;98894.94;;;21.89;58.35
30383;BME280;17179;48.022;7.858;2022-07-23T06:17:20;98901.09;;;21.95;58.82
30383;BME280;17179;48.022;7.858;2022-07-23T06:19:45;98904.47;;;22.00;58.17
30383;BME280;17179;48.022;7.858;2022-07-23T06:22:11;98897.69;;;22.07;57.73
30383;BME280;17179;48.022;7.858;2022-07-23T06:24:36;98896.88;;;22.15;57.02
30383;BME280;17179;48.022;7.858;2022-07-23T06:27:02;98903.84;;;22.21;57.44
30383;BME280;17179;48.022;7.858;2022-07-23T06:29:27;98901.72;;;22.27;52.61
30383;BME280;17179;48.022;7.858;2022-07-23T06:31:52;98903.94;;;22.34;51.38
30383;BME280;17179;48.022;7.858;2022-07-23T06:34:18;98908.47;;;22.38;51.77
30383;BME280;17179;48.022;7.858;2022-07-23T06:36:43;98911.06;;;22.44;52.29
30383;BME280;17179;48.022;7.858;2022-07-23T06:39:08;98913.94;;;22.47;52.10
30383;BME280;17179;48.022;7.858;2022-07-23T06:41:34;98918.78;;;22.50;52.00
30383;BME280;17179;48.022;7.858;2022-07-23T06:43:59;98923.66;;;22.54;51.47
30383;BME280;17179;48.022;7.858;2022-07-23T06:46:24;98920.91;;;22.54;51.41
30383;BME280;17179;48.022;7.858;2022-07-23T06:48:50;98925.28;;;22.55;50.97
30383;BME280;17179;48.022;7.858;2022-07-23T06:51:15;98918.63;;;22.56;50.94
30383;BME280;17179;48.022;7.858;2022-07-23T06:53:41;98926.91;;;22.56;50.18
30383;BME280;17179;48.022;7.858;2022-07-23T06:56:07;98930.13;;;22.58;50.58
30383;BME280;17179;48.022;7.858;2022-07-23T06:58:32;98943.91;;;22.58;49.77
30383;BME280;17179;48.022;7.858;2022-07-23T07:00:57;98943.59;;;22.59;50.28
30383;BME280;17179;48.022;7.858;2022-07-23T07:03:23;98940.50;;;22.61;51.14
30383;BME280;17179;48.022;7.858;2022-07-23T07:05:48;98942.25;;;22.66;50.12
30383;BME280;17179;48.022;7.858;2022-07-23T07:08:15;98932.19;;;22.70;50.07
30383;BME280;17179;48.022;7.858;2022-07-23T07:10:40;98939.16;;;22.76;50.58
30383;BME280;17179;48.022;7.858;2022-07-23T07:13:05;98941.25;;;22.79;50.31
30383;BME280;17179;48.022;7.858;2022-07-23T07:15:31;98946.59;;;22.84;49.54
30383;BME280;17179;48.022;7.858;2022-07-23T07:17:56;98941.69;;;22.90;49.12
30383;BME280;17179;48.022;7.858;2022-07-23T07:20:21;98941.50;;;22.95;49.11
30383;BME280;17179;48.022;7.858;2022-07-23T07:22:48;98951.22;;;23.02;48.41
30383;BME280;17179;48.022;7.858;2022-07-23T07:25:13;98949.84;;;23.08;48.79
30383;BME280;17179;48.022;7.858;2022-07-23T07:27:39;98953.22;;;23.14;48.51
30383;BME280;17179;48.022;7.858;2022-07-23T07:30:04;98960.19;;;23.20;48.07
30383;BME280;17179;48.022;7.858;2022-07-23T07:32:30;98961.94;;;23.25;48.72
30383;BME280;17179;48.022;7.858;2022-07-23T07:34:57;98983.16;;;23.33;48.42
30383;BME280;17179;48.022;7.858;2022-07-23T07:37:23;98985.41;;;23.40;48.26
30383;BME280;17179;48.022;7.858;2022-07-23T07:39:48;98984.09;;;23.46;47.68
30383;BME280;17179;48.022;7.858;2022-07-23T07:42:14;98984.34;;;23.53;48.05
30383;BME280;17179;48.022;7.858;2022-07-23T07:44:39;98979.44;;;23.59;47.59
30383;BME280;17179;48.022;7.858;2022-07-23T07:47:04;98976.94;;;23.66;47.15
30383;BME280;17179;48.022;7.858;2022-07-23T07:49:30;98977.56;;;23.72;47.46
30383;BME280;17179;48.022;7.858;2022-07-23T07:51:55;98984.50;;;23.78;46.65
30383;BME280;17179;48.022;7.858;2022-07-23T07:54:20;98989.47;;;23.85;46.42
30383;BME280;17179;48.022;7.858;2022-07-23T07:56:46;98984.06;;;23.89;45.65
30383;BME280;17179;48.022;7.858;2022-07-23T07:59:11;98976.38;;;23.95;45.79
30383;BME280;17179;48.022;7.858;2022-07-23T08:01:37;98974.56;;;23.99;46.18
30383;BME280;17179;48.022;7.858;2022-07-23T08:04:02;98972.78;;;24.03;44.71
30383;BME280;17179;48.022;7.858;2022-07-23T08:06:27;98976.84;;;24.06;44.50
30383;BME280;17179;48.022;7.858;2022-07-23T08:08:53;98977.78;;;24.10;44.63
30383;BME280;17179;48.022;7.858;2022-07-23T08:11:18;98979.38;;;24.11;44.25
30383;BME280;17179;48.022;7.858;2022-07-23T08:13:43;98975.25;;;24.17;44.44
30383;BME280;17179;48.022;7.858;2022-07-23T08:16:12;98978.97;;;24.21;44.90
30383;BME280;17179;48.022;7.858;2022-07-23T08:18:37;98967.56;;;24.23;43.55
30383;BME280;17179;48.022;7.858;2022-07-23T08:21:02;98964.69;;;24.32;43.71
30383;BME280;17179;48.022;7.858;2022-07-23T08:23:29;98956.66;;;24.39;44.07
30383;BME280;17179;48.022;7.858;2022-07-23T08:25:54;98964.88;;;24.48;45.25
30383;BME280;17179;48.022;7.858;2022-07-23T08:28:22;98963.63;;;24.58;44.08
30383;BME280;17179;48.022;7.858;2022-07-23T08:30:47;98965.59;;;24.70;44.42
30383;BME280;17179;48.022;7.858;2022-07-23T08:33:15;98971.50;;;24.81;42.95
30383;BME280;17179;48.022;7.858;2022-07-23T08:35:46;98972.66;;;24.92;43.59
30383;BME280;17179;48.022;7.858;2022-07-23T08:38:13;98977.72;;;25.03;43.50
30383;BME280;17179;48.022;7.858;2022-07-23T08:40:43;98978.53;;;25.16;43.53
30383;BME280;17179;48.022;7.858;2022-07-23T08:43:12;98979.91;;;25.22;41.96
30383;BME280;17179;48.022;7.858;2022-07-23T08:45:40;98979.00;;;25.30;42.11
30383;BME280;17179;48.022;7.858;2022-07-23T08:48:11;98985.34;;;25.43;41.85
30383;BME280;17179;48.022;7.858;2022-07-23T08:50:37;98988.09;;;25.56;42.65
30383;BME280;17179;48.022;7.858;2022-07-23T08:53:06;98987.75;;;25.58;39.76
30383;BME280;17179;48.022;7.858;2022-07-23T08:55:31;98978.63;;;25.57;40.73
30383;BME280;17179;48.022;7.858;2022-07-23T08:57:57;98975.13;;;25.60;40.68
30383;BME280;17179;48.022;7.858;2022-07-23T09:00:22;98977.69;;;25.65;40.66
30383;BME280;17179;48.022;7.858;2022-07-23T09:02:48;98977.78;;;25.69;40.30
30383;BME280;17179;48.022;7.858;2022-07-23T09:05:15;98967.28;;;25.75;40.21
30383;BME280;17179;48.022;7.858;2022-07-23T09:13:28;98967.66;;;26.02;40.88
30383;BME280;17179;48.022;7.858;2022-07-23T09:15:55;98979.97;;;26.05;39.16
30383;BME280;17179;48.022;7.858;2022-07-23T09:18:35;98974.03;;;26.19;39.90
30383;BME280;17179;48.022;7.858;2022-07-23T09:26:30;98981.66;;;26.38;38.87
30383;BME280;17179;48.022;7.858;2022-07-23T09:31:24;98978.50;;;26.52;39.21
30383;BME280;17179;48.022;7.858;2022-07-23T09:33:50;98978.31;;;26.61;38.23
30383;BME280;17179;48.022;7.858;2022-07-23T09:36:15;98975.72;;;26.68;37.62
30383;BME280;17179;48.022;7.858;2022-07-23T09:38:51;98967.59;;;26.76;37.22
30383;BME280;17179;48.022;7.858;2022-07-23T09:41:17;98972.53;;;26.82;37.02
30383;BME280;17179;48.022;7.858;2022-07-23T09:43:43;98973.13;;;26.92;37.29
30383;BME280;17179;48.022;7.858;2022-07-23T09:46:20;98975.13;;;27.07;37.76
30383;BME280;17179;48.022;7.858;2022-07-23T09:48:47;98972.44;;;27.11;37.25
30383;BME280;17179;48.022;7.858;2022-07-23T09:51:12;98979.75;;;27.19;36.50
30383;BME280;17179;48.022;7.858;2022-07-23T09:53:41;98981.59;;;27.31;35.67
30383;BME280;17179;48.022;7.858;2022-07-23T09:56:07;98983.38;;;27.40;35.53
30383;BME280;17179;48.022;7.858;2022-07-23T09:58:33;98988.28;;;27.47;34.72
30383;BME280;17179;48.022;7.858;2022-07-23T10:01:08;98984.13;;;27.57;34.48
30383;BME280;17179;48.022;7.858;2022-07-23T10:03:34;98984.75;;;27.66;34.98
30383;BME280;17179;48.022;7.858;2022-07-23T10:06:00;98992.06;;;27.74;34.36
30383;BME280;17179;48.022;7.858;2022-07-23T10:08:25;98987.91;;;27.84;34.41
30383;BME280;17179;48.022;7.858;2022-07-23T10:10:51;98992.06;;;27.94;34.42
30383;BME280;17179;48.022;7.858;2022-07-23T10:13:18;98995.00;;;28.01;33.96
30383;BME280;17179;48.022;7.858;2022-07-23T10:16:13;98994.06;;;28.13;33.61
30383;BME280;17179;48.022;7.858;2022-07-23T10:18:39;98996.16;;;28.20;32.83
30383;BME280;17179;48.022;7.858;2022-07-23T10:21:07;98991.13;;;28.26;32.41
30383;BME280;17179;48.022;7.858;2022-07-23T10:23:41;99004.00;;;28.34;32.31
30383;BME280;17179;48.022;7.858;2022-07-23T10:26:32;99006.09;;;28.41;32.39
30383;BME280;17179;48.022;7.858;2022-07-23T10:29:09;98990.66;;;28.44;31.90
30383;BME280;17179;48.022;7.858;2022-07-23T10:31:47;98992.31;;;28.48;31.60
30383;BME280;17179;48.022;7.858;2022-07-23T10:34:30;98988.06;;;28.55;32.75
30383;BME280;17179;48.022;7.858;2022-07-23T10:37:16;98993.72;;;28.62;32.76
30383;BME280;17179;48.022;7.858;2022-07-23T10:42:35;98988.91;;;28.79;32.67
30383;BME280;17179;48.022;7.858;2022-07-23T10:45:22;98994.25;;;28.91;32.89
30383;BME280;17179;48.022;7.858;2022-07-23T10:47:48;98997.03;;;28.91;32.05
30383;BME280;17179;48.022;7.858;2022-07-23T10:55:49;98999.78;;;29.15;32.55
30383;BME280;17179;48.022;7.858;2022-07-23T10:58:22;98991.47;;;29.18;31.43
30383;BME280;17179;48.022;7.858;2022-07-23T11:00:48;98992.72;;;29.21;31.05
30383;BME280;17179;48.022;7.858;2022-07-23T11:03:30;98994.50;;;29.33;32.15
30383;BME280;17179;48.022;7.858;2022-07-23T11:05:57;98996.06;;;29.30;30.55
30383;BME280;17179;48.022;7.858;2022-07-23T11:08:23;98995.78;;;29.39;31.12
30383;BME280;17179;48.022;7.858;2022-07-23T11:11:07;98980.78;;;29.48;31.42
30383;BME280;17179;48.022;7.858;2022-07-23T11:24:06;98989.47;;;29.73;30.76
30383;BME280;17179;48.022;7.858;2022-07-23T11:31:58;98983.28;;;29.87;30.78
30383;BME280;17179;48.022;7.858;2022-07-23T11:34:45;98979.50;;;30.03;30.95
30383;BME280;17179;48.022;7.858;2022-07-23T11:39:58;98983.25;;;30.22;29.84
30383;BME280;17179;48.022;7.858;2022-07-23T11:42:23;98985.41;;;30.32;29.65
30383;BME280;17179;48.022;7.858;2022-07-23T11:44:49;98982.75;;;30.47;29.85
30383;BME280;17179;48.022;7.858;2022-07-23T11:47:24;98982.84;;;30.58;29.23
30383;BME280;17179;48.022;7.858;2022-07-23T11:49:58;98989.34;;;30.69;29.25
30383;BME280;17179;48.022;7.858;2022-07-23T11:52:24;98986.19;;;30.75;29.22
30383;BME280;17179;48.022;7.858;2022-07-23T11:54:59;98980.72;;;30.86;29.97
30383;BME280;17179;48.022;7.858;2022-07-23T11:57:28;98983.97;;;30.95;29.79
30383;BME280;17179;48.022;7.858;2022-07-23T11:59:57;98982.03;;;31.03;28.82
30383;BME280;17179;48.022;7.858;2022-07-23T12:02:24;98979.66;;;31.08;29.28
30383;BME280;17179;48.022;7.858;2022-07-23T12:04:51;98976.13;;;31.15;29.04
30383;BME280;17179;48.022;7.858;2022-07-23T12:07:37;98975.38;;;31.26;29.64
30383;BME280;17179;48.022;7.858;2022-07-23T12:12:52;98985.69;;;31.14;28.91
30383;BME280;17179;48.022;7.858;2022-07-23T12:15:30;98984.91;;;31.14;29.19
30383;BME280;17179;48.022;7.858;2022-07-23T12:17:57;98982.03;;;31.03;29.06
30383;BME280;17179;48.022;7.858;2022-07-23T12:20:56;98978.44;;;31.02;30.50
30383;BME280;17179;48.022;7.858;2022-07-23T12:23:26;98978.75;;;30.90;29.05
30383;BME280;17179;48.022;7.858;2022-07-23T12:25:52;98981.16;;;30.91;29.84
30383;BME280;17179;48.022;7.858;2022-07-23T12:28:36;98976.00;;;30.97;29.83
30383;BME280;17179;48.022;7.858;2022-07-23T12:31:02;98974.84;;;31.02;29.26
30383;BME280;17179;48.022;7.858;2022-07-23T12:33:37;98965.78;;;31.19;29.75
30383;BME280;17179;48.022;7.858;2022-07-23T12:36:05;98967.13;;;31.37;29.30
30383;BME280;17179;48.022;7.858;2022-07-23T12:38:43;98964.06;;;31.68;29.24
30383;BME280;17179;48.022;7.858;2022-07-23T12:41:11;98964.97;;;31.90;28.35
30383;BME280;17179;48.022;7.858;2022-07-23T12:43:40;98958.63;;;32.19;28.28
30383;BME280;17179;48.022;7.858;2022-07-23T12:48:33;98963.09;;;32.75;27.74
30383;BME280;17179;48.022;7.858;2022-07-23T12:53:37;98970.66;;;33.33;28.91
30383;BME280;17179;48.022;7.858;2022-07-23T12:56:10;98962.16;;;33.58;26.33
30383;BME280;17179;48.022;7.858;2022-07-23T12:58:47;98969.28;;;33.85;26.62
30383;BME280;17179;48.022;7.858;2022-07-23T13:04:10;98962.06;;;34.52;25.97
30383;BME280;17179;48.022;7.858;2022-07-23T13:06:38;98963.81;;;34.84;24.47
30383;BME280;17179;48.022;7.858;2022-07-23T13:09:06;98958.31;;;35.12;23.88
30383;BME280;17179;48.022;7.858;2022-07-23T13:11:32;98958.00;;;35.41;23.36
30383;BME280;17179;48.022;7.858;2022-07-23T13:13:58;98960.09;;;35.68;23.86
30383;BME280;17179;48.022;7.858;2022-07-23T13:16:26;98963.81;;;35.93;22.62
30383;BME280;17179;48.022;7.858;2022-07-23T13:18:51;98951.94;;;36.09;22.43
30383;BME280;17179;48.022;7.858;2022-07-23T13:21:16;98953.38;;;36.21;23.08
30383;BME280;17179;48.022;7.858;2022-07-23T13:23:42;98951.25;;;36.29;21.99
30383;BME280;17179;48.022;7.858;2022-07-23T13:26:08;98952.44;;;36.28;21.91
30383;BME280;17179;48.022;7.858;2022-07-23T13:28:33;98959.69;;;36.29;21.75
30383;BME280;17179;48.022;7.858;2022-07-23T13:30:58;98950.63;;;36.17;21.86
30383;BME280;17179;48.022;7.858;2022-07-23T13:33:24;98949.50;;;36.11;21.67
30383;BME280;17179;48.022;7.858;2022-07-23T13:35:51;98958.38;;;36.09;22.51
30383;BME280;17179;48.022;7.858;2022-07-23T13:38:17;98957.56;;;36.09;22.20
30383;BME280;17179;48.022;7.858;2022-07-23T13:40:45;98947.50;;;36.11;22.15
30383;BME280;17179;48.022;7.858;2022-07-23T13:43:13;98947.69;;;36.24;21.55
30383;BME280;17179;48.022;7.858;2022-07-23T13:45:39;98946.31;;;36.37;22.01
30383;BME280;17179;48.022;7.858;2022-07-23T13:48:06;98954.03;;;36.56;21.83
30383;BME280;17179;48.022;7.858;2022-07-23T13:50:33;98954.97;;;36.74;21.38